Карточка аэропорта UMGG

Внимание!
Информация на этой странице в стадии наполнения.
Если вы не увидели какой-то информации, или заметили неточность - пожалуйста сообщите нам!
Спасибо!
Команда RU-STAFF
Название аэропортаGomel
Название аэропорта (англ.)Gomel
Превышение144 ft. (43.9 m.)
Координаты52°31.614', 31°1.002'
Высота перехода6000 ft
Эшелон переходаQNH>=733mm:FL80; QNH<733mm:FL90
Коды ответчика0030−0032
Зона ОрВДМинск РПИ (UMMV)
Данные METARUMGG 190100Z 20003MPS 5000 -SHRA BR BKN006 OVC023CB 10/10 Q1006 R10/290050 NOSIG RMK QBB180
Проноз погоды (TAF)UMGG 182302Z 1900/1924 17006MPS 3000 BR OVC004 TEMPO 1900/1906 1200 -SHRA BR BKN003 SCT015CB FM190600 20006MPS 9999 BKN013 BECMG 1912/1914 07006MPS TEMPO 1913/1918 2000 SHRA BKN005 BKN015CB TEMPO 1918/1924 12006MPS 1200 SHRA BR BKN004 BKN015CB
NOTAMshow/hide NOTAM
AWOS   TABLE

Информация о ВПП

ВПП Длина ВПП (м.) Покрытие Курс ВПП Частота ILS
102569Цементобетон103109.3
282569Цементобетон283108.7

Диспетчерские позиции

Позывной Наименование органа УВД Частота
UMGG_APPHomiel Approach126.100
UMGG_TWRHomiel Tower118.100



Спутниковое изображение